Time;durP1;ratioP1;P1;durP2;ratioP2;P2;SDS_P1;SDS_P2;PMS_P1;PMS_P2;Temp;Humidity;BMP_temperature;BMP_pressure;BME280_temperature;BME280_humidity;BME280_pressure;Samples;Min_cycle;Max_cycle;Signal;HPM_P1;HPM_P2
2022/05/11 00:01:35;;;;;;;10.63;9.83;;;;;;;13.80;100.00;97130.84;5048293;28;20292;-59
2022/05/11 00:04:05;;;;;;;11.00;10.20;;;;;;;13.75;100.00;97135.97;5007928;28;20751;-57
2022/05/11 00:06:34;;;;;;;9.73;8.77;;;;;;;13.88;100.00;97137.81;5047251;28;20203;-59
2022/05/11 00:09:03;;;;;;;10.10;9.40;;;;;;;13.89;100.00;97134.94;5028139;28;20750;-56
2022/05/11 00:11:32;;;;;;;10.97;10.17;;;;;;;13.92;100.00;97127.56;5042341;28;20243;-56
2022/05/11 00:14:00;;;;;;;9.67;8.97;;;;;;;13.91;100.00;97129.41;5029005;28;20200;-60
2022/05/11 00:16:31;;;;;;;11.33;10.43;;;;;;;13.92;100.00;97124.91;5027911;28;20279;-60
2022/05/11 00:19:00;;;;;;;10.57;9.67;;;;;;;13.87;100.00;97123.69;5046065;28;20246;-60
2022/05/11 00:21:29;;;;;;;11.07;10.27;;;;;;;13.89;100.00;97116.31;5009331;28;20254;-59
2022/05/11 00:23:57;;;;;;;11.70;10.70;;;;;;;13.88;100.00;97116.50;5023864;28;20265;-60
2022/05/11 00:26:26;;;;;;;11.23;10.23;;;;;;;13.78;100.00;97103.59;5032128;28;20227;-59
2022/05/11 00:28:54;;;;;;;10.73;9.77;;;;;;;13.80;100.00;97119.38;5046481;28;20306;-62
2022/05/11 00:31:23;;;;;;;10.83;9.87;;;;;;;13.74;100.00;97110.38;5015570;28;20234;-59
2022/05/11 00:33:52;;;;;;;10.83;10.03;;;;;;;13.77;100.00;97114.47;5031366;28;20218;-58
2022/05/11 00:36:21;;;;;;;10.60;9.80;;;;;;;13.71;100.00;97106.28;5007022;28;20346;-58
2022/05/11 00:38:49;;;;;;;10.63;9.83;;;;;;;13.73;100.00;97098.06;5043991;28;20672;-57
2022/05/11 00:41:18;;;;;;;10.43;9.60;;;;;;;13.73;100.00;97103.41;5031346;28;20937;-59
2022/05/11 00:43:54;;;;;;;10.93;9.73;;;;;;;13.81;100.00;97105.03;5047135;28;20427;-57
2022/05/11 00:46:26;;;;;;;10.40;9.50;;;;;;;13.85;100.00;97100.94;5011329;28;20307;-58
2022/05/11 00:51:46;;;;;;;10.30;9.50;;;;;;;13.77;100.00;97098.50;5019396;28;20227;-56
2022/05/11 00:54:15;;;;;;;11.20;10.17;;;;;;;13.66;100.00;97091.94;5023328;28;20335;-57
2022/05/11 00:56:46;;;;;;;10.67;9.87;;;;;;;13.63;100.00;97092.34;5032472;28;20627;-60
2022/05/11 00:59:18;;;;;;;10.77;9.87;;;;;;;13.58;100.00;97084.97;5038285;28;20726;-60
2022/05/11 01:01:46;;;;;;;11.13;10.23;;;;;;;13.58;100.00;97092.97;5004172;28;20232;-62
2022/05/11 01:04:19;;;;;;;10.20;9.40;;;;;;;13.59;100.00;97084.78;5024142;28;20228;-61
2022/05/11 01:06:47;;;;;;;11.43;10.53;;;;;;;13.55;100.00;97090.72;5023158;28;20272;-58
2022/05/11 01:09:16;;;;;;;11.23;9.33;;;;;;;13.50;100.00;97088.69;5026159;28;20422;-57
2022/05/11 01:11:47;;;;;;;10.27;9.47;;;;;;;13.52;100.00;97080.47;5008651;28;20239;-58
2022/05/11 01:14:17;;;;;;;10.73;9.93;;;;;;;13.48;100.00;97082.75;5041096;28;20828;-60
2022/05/11 01:16:46;;;;;;;11.53;10.53;;;;;;;13.38;100.00;97079.63;5011531;28;20317;-62
2022/05/11 01:19:27;;;;;;;10.90;10.03;;;;;;;13.31;100.00;97083.09;5040285;28;20447;-57
2022/05/11 01:21:58;;;;;;;11.43;10.53;;;;;;;13.29;100.00;97077.19;5001683;28;20250;-59
2022/05/11 01:24:31;;;;;;;10.57;9.77;;;;;;;13.29;100.00;97074.50;5002836;28;20231;-59
2022/05/11 01:27:00;;;;;;;11.70;10.50;;;;;;;13.17;100.00;97071.63;5026815;28;20482;-58
2022/05/11 01:29:28;;;;;;;10.93;10.03;;;;;;;13.09;100.00;97066.53;5038802;28;20256;-60
2022/05/11 01:31:56;;;;;;;10.90;10.00;;;;;;;13.07;100.00;97068.56;5003157;28;20235;-62
2022/05/11 01:34:25;;;;;;;11.93;10.97;;;;;;;13.06;100.00;97068.75;5041286;28;20205;-59
2022/05/11 01:36:56;;;;;;;11.43;10.40;;;;;;;13.08;100.00;97070.19;5003879;28;20295;-59
2022/05/11 01:39:24;;;;;;;10.50;9.70;;;;;;;13.18;100.00;97067.16;5025569;28;20699;-60
2022/05/11 01:41:55;;;;;;;10.73;10.00;;;;;;;13.24;100.00;97074.31;5029611;28;20223;-59
2022/05/11 01:44:23;;;;;;;10.03;9.27;;;;;;;13.21;100.00;97072.06;5047488;28;20382;-59
2022/05/11 01:46:53;;;;;;;11.73;10.83;;;;;;;13.17;100.00;97066.31;5003202;28;20349;-60
2022/05/11 01:49:24;;;;;;;10.93;10.13;;;;;;;13.24;100.00;97063.66;5042180;28;20257;-59
2022/05/11 01:51:53;;;;;;;10.97;9.97;;;;;;;13.15;100.00;97062.25;5005543;28;20745;-62
2022/05/11 01:54:21;;;;;;;11.37;10.47;;;;;;;13.14;100.00;97058.75;5036425;28;20289;-61
2022/05/11 01:56:49;;;;;;;11.80;10.80;;;;;;;13.13;100.00;97059.75;5009762;28;20358;-60
2022/05/11 01:59:19;;;;;;;11.50;10.50;;;;;;;13.15;100.00;97064.91;5041386;28;20276;-59
2022/05/11 02:01:47;;;;;;;10.80;10.00;;;;;;;13.14;100.00;97068.56;5001549;28;21124;-57
2022/05/11 02:09:47;;;;;;;11.13;10.13;;;;;;;12.98;100.00;97065.28;5000887;28;20208;-58
2022/05/11 02:12:16;;;;;;;11.13;10.17;;;;;;;12.91;100.00;97063.63;5040151;28;20226;-59
2022/05/11 02:14:45;;;;;;;11.87;10.87;;;;;;;12.91;100.00;97066.28;5007406;28;20206;-59
2022/05/11 02:17:14;;;;;;;11.60;10.60;;;;;;;12.86;100.00;97067.69;5003002;28;20211;-60
2022/05/11 02:19:42;;;;;;;11.23;10.43;;;;;;;12.81;100.00;97069.34;5040331;28;20214;-59
2022/05/11 02:22:10;;;;;;;11.30;10.30;;;;;;;12.66;100.00;97075.63;5040544;28;20979;-58
2022/05/11 02:24:39;;;;;;;10.67;9.87;;;;;;;12.70;100.00;97071.56;5025466;28;20205;-58
2022/05/11 02:27:07;;;;;;;10.10;9.33;;;;;;;12.56;100.00;97069.88;5028251;28;20401;-53
2022/05/11 02:29:35;;;;;;;11.23;10.37;;;;;;;12.52;100.00;97076.59;5029592;28;20234;-59
2022/05/11 02:32:06;;;;;;;11.60;10.73;;;;;;;12.53;100.00;97071.09;5006178;28;20234;-58
2022/05/11 02:37:20;;;;;;;11.47;10.50;;;;;;;12.54;100.00;97075.41;5038617;28;20317;-59
2022/05/11 02:39:48;;;;;;;11.73;10.83;;;;;;;12.48;100.00;97075.38;5016991;28;20942;-59
2022/05/11 02:42:17;;;;;;;12.00;11.00;;;;;;;12.45;100.00;97077.41;5030594;28;20238;-59
2022/05/11 02:44:45;;;;;;;12.13;11.00;;;;;;;12.43;100.00;97075.94;5020394;28;20285;-60
2022/05/11 02:47:15;;;;;;;12.27;11.17;;;;;;;12.50;100.00;97081.31;5015996;28;20793;-59
2022/05/11 02:49:44;;;;;;;11.87;10.93;;;;;;;12.51;100.00;97085.59;5001897;28;20215;-58
2022/05/11 02:52:14;;;;;;;11.27;10.37;;;;;;;12.52;100.00;97082.75;5044295;28;20231;-56
2022/05/11 02:54:42;;;;;;;12.40;11.40;;;;;;;12.51;100.00;97078.47;5014063;28;20214;-59
2022/05/11 02:57:11;;;;;;;11.20;10.20;;;;;;;12.45;100.00;97080.06;5017655;28;20714;-59
2022/05/11 02:59:39;;;;;;;12.03;11.00;;;;;;;12.53;100.00;97084.41;5034909;28;20203;-60
2022/05/11 03:02:08;;;;;;;11.37;10.47;;;;;;;12.49;100.00;97082.31;5035487;28;20285;-57
2022/05/11 03:04:38;;;;;;;11.37;10.37;;;;;;;12.44;100.00;97077.59;4998023;28;20255;-59
2022/05/11 03:07:06;;;;;;;11.10;10.30;;;;;;;12.38;100.00;97078.38;5041481;28;20230;-58
2022/05/11 03:09:35;;;;;;;11.40;10.40;;;;;;;12.28;100.00;97081.41;5016410;28;20219;-60
2022/05/11 03:12:04;;;;;;;11.97;10.97;;;;;;;12.29;100.00;97085.69;5011214;28;20430;-60
2022/05/11 03:14:32;;;;;;;11.83;10.90;;;;;;;12.18;100.00;97086.25;5024088;28;20339;-55
2022/05/11 03:17:02;;;;;;;11.20;10.37;;;;;;;12.18;100.00;97086.25;5031202;28;20271;-57
2022/05/11 03:19:30;;;;;;;12.50;11.23;;;;;;;12.14;100.00;97076.03;5001242;28;20218;-56
2022/05/11 03:22:00;;;;;;;11.53;10.73;;;;;;;12.07;100.00;97084.97;5044087;28;20226;-59
2022/05/11 03:24:28;;;;;;;11.80;10.40;;;;;;;11.99;100.00;97084.09;5012474;28;20238;-59
2022/05/11 03:26:57;;;;;;;12.03;11.03;;;;;;;11.96;100.00;97087.13;5025677;28;20474;-56
2022/05/11 03:29:26;;;;;;;11.80;10.80;;;;;;;12.01;100.00;97081.28;5039575;28;20225;-59
2022/05/11 03:34:42;;;;;;;12.60;10.70;;;;;;;11.91;100.00;97092.22;5003997;28;20213;-57
2022/05/11 03:37:14;;;;;;;12.37;11.47;;;;;;;11.90;100.00;97095.06;5039610;28;20284;-58
2022/05/11 03:39:43;;;;;;;11.33;10.43;;;;;;;11.88;100.00;97092.63;5017168;28;20215;-60
2022/05/11 03:42:17;;;;;;;10.90;10.07;;;;;;;11.84;100.00;97089.50;5001678;28;20820;-57
2022/05/11 03:44:46;;;;;;;11.97;10.93;;;;;;;11.77;100.00;97082.53;5046000;28;20222;-59
2022/05/11 03:47:14;;;;;;;12.13;11.13;;;;;;;11.73;100.00;97084.75;5027121;28;20603;-60
2022/05/11 03:49:42;;;;;;;11.90;10.80;;;;;;;11.66;100.00;97090.00;4971899;28;20211;-59
2022/05/11 03:52:14;;;;;;;11.77;10.67;;;;;;;11.68;100.00;97082.66;5043421;28;20226;-59
2022/05/11 03:54:42;;;;;;;11.53;10.63;;;;;;;11.71;100.00;97082.28;5024972;28;20291;-59
2022/05/11 03:57:10;;;;;;;12.13;11.03;;;;;;;11.76;100.00;97081.72;5015176;28;20207;-59
2022/05/11 03:59:39;;;;;;;12.07;10.90;;;;;;;11.84;100.00;97086.06;5027898;28;20237;-60
2022/05/11 04:02:07;;;;;;;12.60;11.50;;;;;;;11.86;100.00;97086.69;5030785;28;20226;-61
2022/05/11 04:04:36;;;;;;;11.63;10.73;;;;;;;11.81;100.00;97079.28;5044993;28;20250;-60
2022/05/11 04:07:05;;;;;;;12.53;11.47;;;;;;;11.86;100.00;97086.69;5009315;28;20219;-61
2022/05/11 04:09:34;;;;;;;12.13;11.17;;;;;;;11.82;100.00;97088.88;5026610;28;20854;-56
2022/05/11 04:12:03;;;;;;;11.57;10.63;;;;;;;11.82;100.00;97091.53;5016054;28;20560;-62
2022/05/11 04:14:31;;;;;;;11.60;10.60;;;;;;;11.90;100.00;97084.44;5025771;28;20605;-59
2022/05/11 04:17:00;;;;;;;11.37;10.47;;;;;;;12.00;100.00;97082.28;5043705;28;20214;-61
2022/05/11 04:19:28;;;;;;;12.80;11.73;;;;;;;11.90;100.00;97087.94;5026064;28;20245;-58
2022/05/11 04:21:57;;;;;;;13.03;11.77;;;;;;;11.97;100.00;97090.63;5009806;28;20230;-60
2022/05/11 04:24:25;;;;;;;11.40;10.60;;;;;;;12.00;100.00;97087.59;5027998;28;21063;-60
2022/05/11 04:26:55;;;;;;;12.33;11.33;;;;;;;12.07;100.00;97088.47;5020755;28;20238;-59
2022/05/11 04:29:24;;;;;;;11.73;10.73;;;;;;;12.20;100.00;97081.56;5023222;28;21647;-58
2022/05/11 04:31:56;;;;;;;11.20;10.40;;;;;;;12.29;100.00;97083.03;5046718;28;20306;-59
2022/05/11 04:34:25;;;;;;;11.47;10.57;;;;;;;12.40;100.00;97079.84;5029477;28;20996;-57
2022/05/11 04:36:54;;;;;;;11.30;10.33;;;;;;;12.42;100.00;97088.44;5027381;28;20529;-60
2022/05/11 04:39:22;;;;;;;11.17;10.27;;;;;;;12.57;100.00;97090.94;5024381;28;20218;-55
2022/05/11 04:41:51;;;;;;;11.33;10.40;;;;;;;12.66;100.00;97088.91;5026964;28;20249;-58
2022/05/11 04:44:21;;;;;;;10.83;9.93;;;;;;;12.79;100.00;97088.13;5002280;28;20909;-59
2022/05/11 04:46:49;;;;;;;12.27;11.20;;;;;;;12.94;100.00;97095.94;5047276;28;20265;-61
2022/05/11 04:49:19;;;;;;;11.30;10.40;;;;;;;13.17;100.00;97095.56;5043369;28;21653;-58
2022/05/11 04:51:49;;;;;;;11.97;10.77;;;;;;;13.44;100.00;97100.97;5028521;28;20245;-59
2022/05/11 04:54:18;;;;;;;11.20;10.20;;;;;;;13.64;100.00;97110.81;5010712;28;20207;-60
2022/05/11 04:56:46;;;;;;;11.10;10.07;;;;;;;13.99;100.00;97104.41;5025059;28;20294;-59
2022/05/11 04:59:14;;;;;;;10.97;9.97;;;;;;;14.23;100.00;97102.09;4994432;28;20239;-58
2022/05/11 05:01:45;;;;;;;11.33;10.43;;;;;;;14.41;100.00;97109.44;5020093;28;20287;-60
2022/05/11 05:04:15;;;;;;;10.37;9.67;;;;;;;14.61;100.00;97115.50;5041584;28;20420;-57
2022/05/11 05:06:43;;;;;;;11.40;10.47;;;;;;;14.82;100.00;97110.94;5023307;28;20217;-57
2022/05/11 05:09:11;;;;;;;10.20;9.50;;;;;;;14.94;100.00;97108.38;4998741;28;20215;-59
2022/05/11 05:11:40;;;;;;;10.90;9.83;;;;;;;15.00;100.00;97118.22;5019765;28;21807;-58
2022/05/11 05:14:08;;;;;;;11.27;10.37;;;;;;;15.12;100.00;97110.31;5013523;28;20202;-56
2022/05/11 05:16:36;;;;;;;10.67;9.87;;;;;;;15.08;100.00;97108.31;5023430;28;20729;-60
2022/05/11 05:19:06;;;;;;;10.37;9.57;;;;;;;15.03;100.00;97112.47;5019304;28;20581;-59
2022/05/11 05:21:35;;;;;;;10.60;9.70;;;;;;;15.15;100.00;97117.94;5028979;28;20227;-57
2022/05/11 05:24:03;;;;;;;9.87;9.07;;;;;;;15.18;100.00;97119.34;4999418;28;20226;-59
2022/05/11 05:26:32;;;;;;;11.03;10.13;;;;;;;15.31;100.00;97115.75;5046286;28;20238;-57
2022/05/11 05:31:45;;;;;;;11.10;10.17;;;;;;;15.41;100.00;97115.28;5021092;28;20238;-60
2022/05/11 05:34:16;;;;;;;9.87;9.07;;;;;;;15.32;100.00;97114.72;5014891;28;20991;-55
2022/05/11 05:36:44;;;;;;;9.90;9.07;;;;;;;15.36;100.00;97115.94;5022046;28;20203;-58
2022/05/11 05:39:12;;;;;;;10.23;9.30;;;;;;;15.41;100.00;97113.44;4992981;28;20451;-57
2022/05/11 05:41:41;;;;;;;9.23;8.63;;;;;;;15.72;100.00;97119.75;5040721;28;20509;-60
2022/05/11 05:44:10;;;;;;;10.83;9.83;;;;;;;15.93;100.00;97120.44;4989432;28;20228;-60
2022/05/11 05:46:39;;;;;;;11.00;10.20;;;;;;;15.98;100.00;97122.44;5043060;28;20245;-57
2022/05/11 05:49:07;;;;;;;10.03;9.13;;;;;;;16.41;100.00;97124.25;4994795;28;20513;-59
2022/05/11 05:51:39;;;;;;;12.87;11.13;;;;;;;16.60;100.00;97122.38;5026233;28;20800;-60
2022/05/11 05:54:07;;;;;;;11.40;10.30;;;;;;;16.79;100.00;97125.06;5005061;28;20921;-59
2022/05/11 05:56:36;;;;;;;10.43;9.73;;;;;;;16.92;100.00;97119.53;5042203;28;20206;-58
2022/05/11 05:59:09;;;;;;;10.47;9.57;;;;;;;17.14;100.00;97126.25;4998050;28;20234;-59
2022/05/11 06:01:38;;;;;;;11.70;10.80;;;;;;;17.26;100.00;97126.31;5041169;28;20745;-57
2022/05/11 06:04:07;;;;;;;11.83;10.90;;;;;;;17.22;100.00;97131.28;5008084;28;20424;-61
2022/05/11 06:06:36;;;;;;;10.63;9.70;;;;;;;17.07;100.00;97124.50;5026703;28;20686;-57
2022/05/11 06:09:06;;;;;;;11.13;10.23;;;;;;;17.20;100.00;97128.03;4984345;28;20211;-62
2022/05/11 06:11:34;;;;;;;11.17;10.27;;;;;;;17.07;100.00;97129.84;5041112;28;20404;-58
2022/05/11 06:14:03;;;;;;;11.10;10.17;;;;;;;16.99;100.00;97130.19;5017426;28;20847;-60
2022/05/11 06:16:32;;;;;;;11.53;10.57;;;;;;;16.94;100.00;97135.38;5015355;28;20207;-64
2022/05/11 06:19:00;;;;;;;12.30;11.20;;;;;;;16.79;100.00;97131.22;5015187;28;20207;-58
2022/05/11 06:21:29;;;;;;;13.10;10.87;;;;;;;16.73;100.00;97134.00;5025216;28;20283;-62
2022/05/11 06:23:57;;;;;;;11.27;10.17;;;;;;;16.62;100.00;97133.69;5020158;28;20241;-61
2022/05/11 06:26:27;;;;;;;10.90;10.00;;;;;;;16.49;100.00;97132.00;5000241;28;20230;-63
2022/05/11 06:29:16;;;;;;;10.80;9.90;;;;;;;16.42;100.00;97133.91;5019048;28;21138;-58
2022/05/11 06:31:44;;;;;;;11.97;10.73;;;;;;;16.41;100.00;97131.47;5013891;28;20280;-58
2022/05/11 06:34:12;;;;;;;11.93;10.77;;;;;;;16.41;100.00;97126.13;5018331;28;20298;-62
2022/05/11 06:36:40;;;;;;;11.13;10.23;;;;;;;16.49;100.00;97128.50;5019495;28;20219;-59
2022/05/11 06:39:09;;;;;;;11.70;10.60;;;;;;;16.53;100.00;97124.34;5028698;28;20839;-59
2022/05/11 06:41:45;;;;;;;11.07;10.17;;;;;;;16.67;100.00;97122.31;5002048;28;20241;-61
2022/05/11 06:44:13;;;;;;;10.40;9.50;;;;;;;16.88;100.00;97130.94;5020209;28;20783;-61
2022/05/11 06:46:41;;;;;;;11.83;10.70;;;;;;;17.01;100.00;97125.41;5015403;28;20285;-62
2022/05/11 06:49:10;;;;;;;11.83;10.70;;;;;;;17.03;100.00;97128.69;5015928;28;20234;-61
2022/05/11 06:51:38;;;;;;;11.37;10.10;;;;;;;17.21;100.00;97138.53;5029513;28;20628;-62
2022/05/11 06:59:41;;;;;;;10.80;9.90;;;;;;;17.35;100.00;97131.13;5030682;28;20292;-61
2022/05/11 07:02:09;;;;;;;11.77;10.87;;;;;;;17.46;100.00;97136.72;5023222;28;20944;-62
2022/05/11 07:04:38;;;;;;;12.30;11.00;;;;;;;17.63;100.00;97139.56;5047555;28;20214;-59
2022/05/11 07:07:07;;;;;;;12.17;11.17;;;;;;;17.76;100.00;97131.28;5013397;28;20835;-59
2022/05/11 07:09:35;;;;;;;11.03;10.10;;;;;;;17.97;100.00;97128.25;5033434;28;20375;-59
2022/05/11 07:12:19;;;;;;;11.97;10.97;;;;;;;17.92;100.00;97134.34;5039859;28;20228;-57
2022/05/11 07:14:49;;;;;;;11.03;10.07;;;;;;;18.07;100.00;97125.88;5011125;28;20268;-57
2022/05/11 07:17:30;;;;;;;11.30;10.40;;;;;;;18.08;100.00;97125.63;5027146;28;20436;-63
2022/05/11 07:20:00;;;;;;;11.23;10.33;;;;;;;18.20;100.00;97128.31;5012219;28;20207;-60
2022/05/11 07:22:28;;;;;;;11.70;10.80;;;;;;;18.32;100.00;97124.78;5025046;28;20246;-61
2022/05/11 07:24:56;;;;;;;10.10;9.10;;;;;;;18.23;100.00;97122.47;5039111;28;20256;-58
2022/05/11 07:27:26;;;;;;;11.63;10.67;;;;;;;18.13;100.00;97116.06;5038132;28;20329;-61
2022/05/11 07:29:55;;;;;;;11.83;10.63;;;;;;;18.30;100.00;97118.84;5006633;28;20645;-60
2022/05/11 07:32:25;;;;;;;12.07;11.07;;;;;;;18.34;100.00;97120.00;5028546;28;20371;-62
2022/05/11 07:34:53;;;;;;;10.97;9.97;;;;;;;18.33;100.00;97113.84;5015760;28;20203;-60
2022/05/11 07:37:22;;;;;;;10.80;10.00;;;;;;;18.54;100.00;97111.56;5016103;28;20397;-62
2022/05/11 07:39:51;;;;;;;11.27;10.27;;;;;;;18.69;100.00;97121.00;5039271;28;20207;-60
2022/05/11 07:42:21;;;;;;;11.90;10.93;;;;;;;18.73;100.00;97116.78;5032690;28;20235;-60
2022/05/11 07:44:51;;;;;;;11.23;10.23;;;;;;;18.79;100.00;97118.50;5038457;28;20210;-61
2022/05/11 07:47:21;;;;;;;11.57;10.57;;;;;;;18.86;100.00;97124.53;5003480;28;20325;-60
2022/05/11 07:49:49;;;;;;;11.93;10.80;;;;;;;18.84;100.00;97113.22;5022882;28;20218;-61
2022/05/11 07:52:17;;;;;;;11.90;10.90;;;;;;;18.76;100.00;97117.13;5025781;28;20312;-60
2022/05/11 07:54:46;;;;;;;11.10;10.10;;;;;;;18.75;100.00;97114.66;5024922;28;20239;-57
2022/05/11 08:00:02;;;;;;;12.23;11.30;;;;;;;18.92;100.00;97120.91;5044627;28;20207;-60
2022/05/11 08:02:33;;;;;;;11.57;10.67;;;;;;;19.03;100.00;97115.78;4996965;28;20365;-61
2022/05/11 08:05:04;;;;;;;12.57;11.47;;;;;;;19.03;100.00;97116.56;5024217;28;20199;-61
2022/05/11 08:07:39;;;;;;;11.37;10.47;;;;;;;19.07;100.00;97106.97;5029621;28;20211;-60
2022/05/11 08:10:11;;;;;;;11.83;10.70;;;;;;;19.20;100.00;97113.13;5031334;28;20199;-59
2022/05/11 08:12:39;;;;;;;11.13;10.23;;;;;;;19.42;100.00;97113.22;5030476;28;20309;-60
2022/05/11 08:15:11;;;;;;;13.50;12.40;;;;;;;19.53;100.00;97116.91;5042309;28;20192;-59
2022/05/11 08:17:39;;;;;;;13.07;11.43;;;;;;;19.60;100.00;97109.50;4999365;28;20585;-58
2022/05/11 08:20:11;;;;;;;13.23;12.13;;;;;;;19.81;100.00;97104.44;5041863;28;20199;-61
2022/05/11 08:22:41;;;;;;;12.83;11.73;;;;;;;19.93;100.00;97112.44;5011783;28;20310;-59
2022/05/11 08:25:10;;;;;;;12.70;11.70;;;;;;;20.08;100.00;97106.47;5027533;28;20290;-58
2022/05/11 08:27:41;;;;;;;11.23;10.33;;;;;;;20.07;100.00;97099.47;5035579;28;20234;-58
2022/05/11 08:36:08;;;;;;;12.30;11.37;;;;;;;20.39;100.00;97090.75;5038607;28;20224;-58
2022/05/11 08:38:41;;;;;;;12.10;11.10;;;;;;;20.31;100.00;97104.63;5001165;28;20208;-58
2022/05/11 08:41:20;;;;;;;12.43;11.43;;;;;;;20.40;100.00;97095.06;5027920;28;20199;-58
2022/05/11 08:43:49;;;;;;;12.47;11.27;;;;;;;20.43;100.00;97093.72;5023315;28;20212;-59
2022/05/11 08:46:26;;;;;;;13.87;12.67;;;;;;;20.58;100.00;97093.94;5041047;28;20235;-59
2022/05/11 08:48:58;;;;;;;12.27;11.27;;;;;;;20.77;100.00;97091.75;5003384;28;20215;-59
2022/05/11 08:51:31;;;;;;;11.90;10.77;;;;;;;20.89;100.00;97097.00;5038788;28;20660;-59
2022/05/11 08:54:09;;;;;;;12.63;11.33;;;;;;;20.80;100.00;97093.94;5028502;28;20266;-60
2022/05/11 08:56:38;;;;;;;11.07;10.17;;;;;;;20.87;100.00;97096.47;5025013;28;20261;-57
2022/05/11 08:59:17;;;;;;;11.00;9.93;;;;;;;21.09;100.00;97096.41;5021901;28;20202;-59
2022/05/11 09:01:50;;;;;;;11.50;10.70;;;;;;;21.20;100.00;97097.31;5039814;28;20273;-60
2022/05/11 09:04:22;;;;;;;11.47;10.43;;;;;;;21.39;100.00;97100.44;4987718;28;20233;-62
2022/05/11 09:06:50;;;;;;;9.20;8.50;;;;;;;21.39;100.00;97095.03;5036148;28;20231;-60
2022/05/11 09:09:19;;;;;;;11.40;10.43;;;;;;;21.58;100.00;97099.25;5030282;28;20829;-62
2022/05/11 09:11:50;;;;;;;10.93;10.03;;;;;;;21.64;100.00;97098.28;5028598;28;20297;-60
2022/05/11 09:14:21;;;;;;;10.37;9.50;;;;;;;21.73;100.00;97094.00;5022680;28;20215;-62
2022/05/11 09:16:52;;;;;;;9.23;8.53;;;;;;;21.83;100.00;97088.69;5042550;28;20687;-60
2022/05/11 09:19:23;;;;;;;19.23;11.00;;;;;;;22.05;100.00;97092.31;5008053;28;20705;-59
2022/05/11 09:21:54;;;;;;;10.87;9.87;;;;;;;22.26;98.81;97091.38;5030186;28;20284;-59
2022/05/11 09:24:29;;;;;;;11.27;10.23;;;;;;;22.25;98.66;97081.66;5030389;28;20298;-61
2022/05/11 09:27:07;;;;;;;9.63;8.83;;;;;;;22.36;99.45;97090.63;5024194;28;20227;-58
2022/05/11 09:29:39;;;;;;;10.17;9.27;;;;;;;22.44;97.69;97086.59;5016508;28;20211;-63
2022/05/11 09:32:37;;;;;;;9.80;8.90;;;;;;;22.50;97.54;97071.28;5041358;28;20553;-61
2022/05/11 09:35:23;;;;;;;9.53;8.57;;;;;;;22.55;95.60;97072.09;4998757;28;20300;-61
2022/05/11 09:38:05;;;;;;;9.27;8.47;;;;;;;22.78;97.11;97067.31;5025312;28;20252;-59
2022/05/11 09:40:55;;;;;;;10.03;9.10;;;;;;;22.92;95.07;97064.91;5023266;28;20279;-60
2022/05/11 09:43:31;;;;;;;8.47;7.87;;;;;;;23.20;94.82;97064.66;5020371;28;20603;-59
2022/05/11 09:46:00;;;;;;;9.00;8.10;;;;;;;23.16;92.95;97061.72;5012442;28;20660;-59
2022/05/11 09:48:37;;;;;;;8.00;7.50;;;;;;;23.43;89.62;97052.53;5036294;28;20192;-62
2022/05/11 09:51:19;;;;;;;10.67;8.27;;;;;;;23.71;86.79;97050.38;4999615;28;20253;-60
2022/05/11 09:53:53;;;;;;;7.83;7.13;;;;;;;23.91;81.47;97054.13;5035054;28;20202;-58
2022/05/11 09:56:46;;;;;;;16.50;10.70;;;;;;;24.21;76.81;97052.44;5022267;28;20422;-64
2022/05/11 09:59:22;;;;;;;8.20;7.03;;;;;;;24.19;79.24;97047.31;5020754;28;20276;-59
2022/05/11 10:01:53;;;;;;;12.33;8.30;;;;;;;24.33;79.63;97035.88;5013590;28;20230;-60
2022/05/11 10:04:31;;;;;;;7.40;6.70;;;;;;;24.29;72.62;97043.78;5035941;28;22684;-60
2022/05/11 10:07:07;;;;;;;7.13;6.53;;;;;;;24.51;74.60;97042.56;4994214;28;20344;-60
2022/05/11 10:09:40;;;;;;;9.23;6.33;;;;;;;24.50;69.96;97038.25;5036278;28;20222;-63
2022/05/11 10:12:13;;;;;;;5.97;5.53;;;;;;;24.26;66.35;97037.00;5015395;28;21099;-62
2022/05/11 10:23:30;;;;;;;5.80;5.30;;;;;;;24.31;64.94;97035.34;5030674;28;20512;-60
2022/05/11 10:26:03;;;;;;;5.20;4.73;;;;;;;24.35;63.88;97031.00;5043951;28;20207;-60
2022/05/11 10:28:39;;;;;;;5.60;5.20;;;;;;;24.27;61.76;97027.00;5029576;28;20227;-59
2022/05/11 10:31:13;;;;;;;5.70;5.30;;;;;;;24.28;60.40;97024.00;5003528;28;20440;-62
2022/05/11 10:33:50;;;;;;;5.37;4.97;;;;;;;24.28;60.82;97023.19;5043487;28;20686;-59
2022/05/11 10:36:33;;;;;;;4.80;4.30;;;;;;;24.41;58.32;97017.19;5039319;28;20437;-59
2022/05/11 10:39:14;;;;;;;4.90;4.47;;;;;;;24.46;61.05;97016.34;5001848;28;20730;-59
2022/05/11 10:41:48;;;;;;;5.20;4.70;;;;;;;24.48;61.85;97010.66;5040343;28;20235;-61
2022/05/11 10:44:27;;;;;;;9.33;4.93;;;;;;;24.36;61.33;97006.38;5020453;28;20708;-58
2022/05/11 10:47:03;;;;;;;4.40;4.13;;;;;;;24.24;54.41;97003.97;5032685;28;20226;-61
2022/05/11 10:49:47;;;;;;;5.00;4.60;;;;;;;24.43;55.28;97008.75;5046715;28;20660;-60
2022/05/11 10:52:38;;;;;;;7.27;4.27;;;;;;;24.49;51.50;97001.44;5035792;28;20809;-58
2022/05/11 10:55:16;;;;;;;4.03;3.83;;;;;;;24.53;55.98;96997.91;5007578;28;20304;-59
2022/05/11 10:57:59;;;;;;;4.83;4.43;;;;;;;24.50;56.28;96995.75;5044068;28;20203;-57
2022/05/11 11:00:29;;;;;;;5.87;4.40;;;;;;;24.64;59.11;96993.22;5029666;28;20280;-59
2022/05/11 11:03:32;;;;;;;4.30;3.90;;;;;;;24.67;56.97;96992.69;5017886;28;20257;-59
2022/05/11 11:09:08;;;;;;;3.97;3.63;;;;;;;24.63;58.18;96978.06;5011005;28;20268;-61
2022/05/11 11:11:43;;;;;;;4.23;3.97;;;;;;;24.79;52.46;96981.50;5045597;28;20559;-57
2022/05/11 11:14:12;;;;;;;4.00;3.80;;;;;;;24.78;53.16;96968.25;5046168;28;20271;-59
2022/05/11 11:17:02;;;;;;;4.27;3.27;;;;;;;24.78;52.30;96973.66;5032464;28;20324;-61
2022/05/11 11:19:31;;;;;;;4.10;3.80;;;;;;;24.72;49.06;96975.56;5024948;28;20207;-64
2022/05/11 11:22:01;;;;;;;3.50;3.30;;;;;;;24.79;51.13;96970.66;5029174;28;20227;-61
2022/05/11 11:24:31;;;;;;;5.00;4.60;;;;;;;24.82;53.03;96970.13;5009450;28;20212;-63
2022/05/11 11:27:00;;;;;;;4.00;3.70;;;;;;;24.95;50.64;96967.84;5040081;28;20223;-62
2022/05/11 11:29:31;;;;;;;3.83;3.53;;;;;;;24.95;51.15;96965.94;5044553;28;20218;-61
2022/05/11 11:32:14;;;;;;;3.90;3.70;;;;;;;25.04;47.13;96968.84;5024240;28;20223;-61
2022/05/11 11:34:45;;;;;;;3.57;3.23;;;;;;;25.06;50.98;96960.47;5028143;28;20211;-56
2022/05/11 11:37:42;;;;;;;5.00;4.63;;;;;;;25.10;50.56;96962.31;5018958;28;20249;-64
2022/05/11 11:40:24;;;;;;;4.37;3.97;;;;;;;25.19;47.13;96964.41;5006765;28;20619;-63
2022/05/11 11:42:53;;;;;;;3.50;3.30;;;;;;;25.24;47.58;96956.25;5037332;28;20456;-64
2022/05/11 11:46:06;;;;;;;4.13;3.83;;;;;;;25.31;47.84;96948.56;5026850;28;20563;-61
2022/05/11 11:48:38;;;;;;;3.97;3.60;;;;;;;25.17;45.16;96953.03;5004259;28;20219;-63
2022/05/11 11:51:32;;;;;;;3.70;3.50;;;;;;;25.32;45.46;96944.78;5039006;28;20204;-62
2022/05/11 11:54:01;;;;;;;6.33;4.53;;;;;;;25.46;46.68;96949.50;5007586;28;20653;-65
2022/05/11 11:56:49;;;;;;;3.50;3.30;;;;;;;25.48;47.84;96939.22;5035123;28;20200;-61
2022/05/11 11:59:40;;;;;;;4.10;3.80;;;;;;;25.58;47.74;96939.13;5045556;28;20207;-63
2022/05/11 12:02:19;;;;;;;3.77;3.57;;;;;;;25.63;46.65;96936.34;5024228;28;20277;-65
2022/05/11 12:05:11;;;;;;;6.30;3.90;;;;;;;25.57;46.59;96926.63;5002138;28;20218;-58
2022/05/11 12:16:18;;;;;;;3.43;3.23;;;;;;;25.93;40.47;96901.00;5042830;28;20882;-64
2022/05/11 12:18:47;;;;;;;3.90;3.70;;;;;;;26.14;43.63;96902.38;5010395;28;20668;-63
2022/05/11 12:21:26;;;;;;;3.27;3.17;;;;;;;26.14;41.57;96904.25;5022664;28;20230;-64
2022/05/11 12:23:54;;;;;;;3.63;3.20;;;;;;;26.18;40.24;96907.22;5043128;28;20268;-62
2022/05/11 12:26:26;;;;;;;3.77;3.57;;;;;;;26.37;42.32;96901.81;5007109;28;20238;-61
2022/05/11 12:31:54;;;;;;;5.07;3.70;;;;;;;26.58;39.33;96894.94;5021534;28;20484;-61